Estación de Morza Norte

Ultimos registro cada 15 minutos 96
Estación Fecha / Hora Temperatura Humedad Lluvia Velocidad Dirección Radiación Presion
96 Morza Norte 08-05-2026 23:45 7,8 71 0 0 116 0 1020,8
95 Morza Norte 08-05-2026 23:30 7,8 71 0 0 116 0 1021
94 Morza Norte 08-05-2026 23:15 7,7 71 0 0 116 0 1021,4
93 Morza Norte 08-05-2026 23:00 6,9 71 0 0 114 0 1021,6
92 Morza Norte 08-05-2026 22:45 6,9 71 0 0 114 0 1021,6
91 Morza Norte 08-05-2026 22:30 6,4 69 0 0 114 0 1021,2
90 Morza Norte 08-05-2026 22:15 6,4 69 0 0 114 0 1021,6
89 Morza Norte 08-05-2026 22:00 6,4 67 0 0 114 0 1021,6
88 Morza Norte 08-05-2026 21:45 7 67 0 0 114 0 1021,4
87 Morza Norte 08-05-2026 21:30 7,6 99 0 0 114 0 1021,3
86 Morza Norte 08-05-2026 21:15 7,8 67 0 0 114 0 1021,1
85 Morza Norte 08-05-2026 21:00 7,8 65 0 0 114 0 1021,3
84 Morza Norte 08-05-2026 20:45 7,8 62 0 0 113 0 1020,9
83 Morza Norte 08-05-2026 20:30 8,1 99 0 0 114 0 1020,9
82 Morza Norte 08-05-2026 20:15 8,2 62 0 0 226 0 1020,7
81 Morza Norte 08-05-2026 20:00 8,6 62 0 0 226 0 1021
80 Morza Norte 08-05-2026 19:45 9,1 62 0 0 226 0 1020,4
79 Morza Norte 08-05-2026 19:30 9,3 62 0 0 225 0 1020,6
78 Morza Norte 08-05-2026 19:15 9,6 62 0 0 226 0 1020,3
77 Morza Norte 08-05-2026 19:00 11 59 0 0 226 0 1020,1
76 Morza Norte 08-05-2026 18:45 11 59 0 0 226 0 1020,1
75 Morza Norte 08-05-2026 18:30 12 99 0 0 226 0 1020,1
74 Morza Norte 08-05-2026 18:15 13 56 0 0 161 0 1020,3
73 Morza Norte 08-05-2026 18:00 13,7 54 0 0 161 0 1019,9
72 Morza Norte 08-05-2026 17:45 14,4 52 0 0 155 5 1020
71 Morza Norte 08-05-2026 17:30 15,2 50 0 0 158 12 1020,2
70 Morza Norte 08-05-2026 17:15 16,1 47 0 0 158 32 1020,5
69 Morza Norte 08-05-2026 17:00 17,1 45 0 0 179 40 1020,4
68 Morza Norte 08-05-2026 16:45 17,6 43 0 0 314 107 1020,5
67 Morza Norte 08-05-2026 16:30 17,9 99 0 0 65 146 1020,6
66 Morza Norte 08-05-2026 16:15 18,6 35 0 0 160 204 1020,4
65 Morza Norte 08-05-2026 16:00 18,4 37 0 0 184 246 1020,6
64 Morza Norte 08-05-2026 15:45 18,9 38 0 0,4 218 292 1020,8
63 Morza Norte 08-05-2026 15:30 18,8 38 0 0 262 316 1020,6
62 Morza Norte 08-05-2026 15:15 17,8 37 0 0,4 139 350 1020,6
61 Morza Norte 08-05-2026 15:00 18,1 38 0 0,9 249 378 1020,6
60 Morza Norte 08-05-2026 14:45 17,7 36 0 0,9 169 411 1020,8
59 Morza Norte 08-05-2026 14:30 17,8 36 0 0,9 296 102 1021,1
58 Morza Norte 08-05-2026 14:15 17,8 39 0 0,4 196 399 1021
57 Morza Norte 08-05-2026 14:00 17,6 39 0 1,3 137 476 1021,2
56 Morza Norte 08-05-2026 13:45 17,7 39 0 0,4 267 441 1021,5
55 Morza Norte 08-05-2026 13:30 17,4 40 0 0 227 515 1021,5
54 Morza Norte 08-05-2026 13:15 16,9 40 0 0,4 275 257 1021,7
53 Morza Norte 08-05-2026 13:00 16,6 43 0 0 278 478 1022
52 Morza Norte 08-05-2026 12:45 16,4 46 0 0 305 292 1022,2
51 Morza Norte 08-05-2026 12:30 16 45 0 0 268 195 1022,4
50 Morza Norte 08-05-2026 12:15 15,6 49 0 0,9 246 397 1022,5
49 Morza Norte 08-05-2026 12:00 14,8 52 0 0 1 534 1022,6
48 Morza Norte 08-05-2026 11:45 14,1 52 0 0,9 125 529 1022,9
47 Morza Norte 08-05-2026 11:30 13,3 56 0 0 304 508 1022,8
46 Morza Norte 08-05-2026 11:15 12,7 63 0 0 307 369 1023
45 Morza Norte 08-05-2026 11:00 10,1 69 0 0 286 462 1023,4
44 Morza Norte 08-05-2026 10:45 10,1 69 0 0 286 462 1023,4
43 Morza Norte 08-05-2026 10:30 9,5 99 0 0 312 438 1023,5
42 Morza Norte 08-05-2026 10:15 8,6 72 0 0 289 390 1023,7
41 Morza Norte 08-05-2026 10:00 7,9 73 0 0 269 373 1024
40 Morza Norte 08-05-2026 09:45 7,6 74 0 0 157 339 1024
39 Morza Norte 08-05-2026 09:30 7 99 0 0 289 299 1024
38 Morza Norte 08-05-2026 09:15 6,7 74 0 0 319 264 1023,5
37 Morza Norte 08-05-2026 09:00 6,6 74 0 0 300 211 1023,8
36 Morza Norte 08-05-2026 08:45 5,8 74 0 0 93 179 1023,8
35 Morza Norte 08-05-2026 08:30 3,9 74 0 0 107 134 1023,8
34 Morza Norte 08-05-2026 08:15 2,9 73 0 0 108 93 1023,7
33 Morza Norte 08-05-2026 08:00 1,8 72 0 0 140 54 1023,4
32 Morza Norte 08-05-2026 07:45 1,8 72 0 0 140 12 1023,7
31 Morza Norte 08-05-2026 07:30 1,4 73 0 0 146 5 1023,8
30 Morza Norte 08-05-2026 07:15 1,1 72 0 0 245 0 1023,7
29 Morza Norte 08-05-2026 07:00 1,6 72 0,2 0 245 0 1023,8
28 Morza Norte 08-05-2026 06:45 1,7 72 0 0 245 0 1023,8
27 Morza Norte 08-05-2026 06:30 2 99 0 0 247 0 1023,9
26 Morza Norte 08-05-2026 06:15 1,8 72 0 0 248 0 1024,2
25 Morza Norte 08-05-2026 06:00 1,8 72 0 0 248 0 1024,2
24 Morza Norte 08-05-2026 05:45 2,1 99 0 0 248 0 1024,4
23 Morza Norte 08-05-2026 05:30 2,1 72 0 0 248 0 1024,1
22 Morza Norte 08-05-2026 05:15 2 72 0 0 246 0 1024,3
21 Morza Norte 08-05-2026 05:00 1,9 72 0 0 246 0 1024,2
20 Morza Norte 08-05-2026 04:45 1,9 99 0 0 246 0 1024,2
19 Morza Norte 08-05-2026 04:30 1,7 72 0 0 246 0 1024,2
18 Morza Norte 08-05-2026 04:15 1,7 72 0 0 246 0 1023,9
17 Morza Norte 08-05-2026 04:00 1,3 70 0 0 246 0 1024,5
16 Morza Norte 08-05-2026 03:45 1,3 70 0 0 246 0 1024,5
15 Morza Norte 08-05-2026 03:30 1,7 99 0 0 246 0 1024,3
14 Morza Norte 08-05-2026 03:15 2,1 70 0 0 246 0 1024,4
13 Morza Norte 08-05-2026 03:00 2,4 70 0 0 246 0 1024,7
12 Morza Norte 08-05-2026 02:45 2,8 70 0 0 246 0 1024,8
11 Morza Norte 08-05-2026 02:30 3,3 99 0 0 246 0 1024,8
10 Morza Norte 08-05-2026 02:15 3,4 69 0 0 246 0 1025
9 Morza Norte 08-05-2026 02:00 3,3 67 0 0 248 0 1024,9
8 Morza Norte 08-05-2026 01:45 3,9 67 0 0 248 0 1025,1
7 Morza Norte 08-05-2026 01:30 4,6 68 0 0 248 0 1025,3
6 Morza Norte 08-05-2026 01:15 4,7 67 0 0 253 0 1025,4
5 Morza Norte 08-05-2026 01:00 5,1 67 0 0 253 0 1025,4
4 Morza Norte 08-05-2026 00:45 5,8 67 0 0 253 0 1025,6
3 Morza Norte 08-05-2026 00:30 6,6 66 0 0 253 0 1025,7
2 Morza Norte 08-05-2026 00:15 7,4 67 0 0 253 0 1025,9
1 Morza Norte 08-05-2026 00:00 7,8 67 0 0 135 0 1026